ZA-0042 weather

Adamsfontein Airport
Colesberg, Northern Cape, South Africa

Public forecast

Using degrees Celsius for public forecast. Weather courtesy of forecast.io.

Closest aviation weather report (METAR) to Adamsfontein Airport

Report is more than 6 hours old.

Closest report is De Aar Military Airport, 69.3 nm (128.4 km) W. Retrieved 2020/02/18 09:08 UTC (12 hours ago):

FADY 180908Z 01007KT 5000 RA FEW030 BKN100 19/18 Q1024

Closest aviation forecast (TAF) to Adamsfontein Airport

Closest forecast is Bram Fischer International Airport, 104.6 nm (193.7 km) NNE. Retrieved 2020/02/18 18:00 UTC (3 hours ago):

TAF FABL 181600Z 1818/1918 12005KT 9999 FEW020 BKN080 TX23/1913Z TN17/1904Z PROB40 TEMPO 1818/1822 7000 -SHRA FEW020TCU BECMG 1822/1824 BKN020 BKN065 PROB40 TEMPO 1900/1906 7000 RA BKN015 BECMG 1906/1908 36010KT BKN030 FEW035TCU PROB30 TEMPO 1913/1918 -TSRA FEW035CB